Time;durP1;ratioP1;P1;durP2;ratioP2;P2;SDS_P1;SDS_P2;PMS_P1;PMS_P2;Temp;Humidity;BMP_temperature;BMP_pressure;BME280_temperature;BME280_humidity;BME280_pressure;Samples;Min_cycle;Max_cycle;Signal;HPM_P1;HPM_P2
2021/10/27 00:01:20;;;;;;;37.30;31.75;;;13.40;99.90;;;;;;6002873;23;20036;-42
2021/10/27 00:03:47;;;;;;;41.78;32.83;;;13.30;99.90;;;;;;6001647;23;20059;-41
2021/10/27 00:06:16;;;;;;;36.63;31.45;;;13.30;99.90;;;;;;5980042;23;20027;-43
2021/10/27 00:08:42;;;;;;;38.97;32.00;;;13.30;99.90;;;;;;6003894;23;20027;-41
2021/10/27 00:11:08;;;;;;;40.40;32.50;;;13.30;99.90;;;;;;6003104;23;20024;-42
2021/10/27 00:13:34;;;;;;;37.13;31.75;;;13.40;99.90;;;;;;6002755;23;20362;-43
2021/10/27 00:16:02;;;;;;;35.17;30.42;;;13.40;99.90;;;;;;6003356;23;20067;-42
2021/10/27 00:18:29;;;;;;;37.10;32.90;;;13.40;99.90;;;;;;6004270;23;20039;-42
2021/10/27 00:20:55;;;;;;;36.80;32.08;;;13.40;99.90;;;;;;6002633;23;20028;-42
2021/10/27 00:23:21;;;;;;;36.83;32.85;;;13.40;99.90;;;;;;6002810;23;20115;-42
2021/10/27 00:25:47;;;;;;;40.10;33.80;;;13.40;99.90;;;;;;6004059;23;20035;-42
2021/10/27 00:28:13;;;;;;;38.85;33.40;;;13.40;99.90;;;;;;6002794;23;20033;-43
2021/10/27 00:30:42;;;;;;;39.33;32.15;;;13.40;99.90;;;;;;6003138;23;20072;-45
2021/10/27 00:33:08;;;;;;;41.05;33.78;;;13.40;99.90;;;;;;6001489;23;20032;-42
2021/10/27 00:35:34;;;;;;;39.42;33.03;;;13.30;99.90;;;;;;5978265;23;20028;-43
2021/10/27 00:38:01;;;;;;;41.33;33.10;;;13.30;99.90;;;;;;6004357;23;20061;-42
2021/10/27 00:40:27;;;;;;;39.80;34.22;;;13.40;99.90;;;;;;6003979;23;20377;-41
2021/10/27 00:42:53;;;;;;;40.28;35.30;;;13.30;99.90;;;;;;6002731;23;20024;-42
2021/10/27 00:45:19;;;;;;;37.55;32.85;;;13.30;99.90;;;;;;6004213;23;20386;-41
2021/10/27 00:47:46;;;;;;;39.70;32.75;;;13.30;99.90;;;;;;6004561;23;20030;-42
2021/10/27 00:50:12;;;;;;;41.00;34.38;;;13.30;99.90;;;;;;5979325;23;20458;-42
2021/10/27 00:52:40;;;;;;;38.20;33.05;;;13.30;99.90;;;;;;6003607;23;20027;-41
2021/10/27 00:55:07;;;;;;;42.83;34.55;;;13.20;99.90;;;;;;6003778;23;20518;-42
2021/10/27 00:57:36;;;;;;;42.28;35.10;;;13.20;99.90;;;;;;6003887;23;20567;-42
2021/10/27 01:00:05;;;;;;;36.40;32.50;;;13.20;99.90;;;;;;6004885;23;20084;-41
2021/10/27 01:02:31;;;;;;;40.22;32.85;;;13.20;99.90;;;;;;6005941;23;20403;-42
2021/10/27 01:04:57;;;;;;;38.40;33.35;;;13.20;99.90;;;;;;6005009;23;20028;-41
2021/10/27 01:07:24;;;;;;;38.40;33.60;;;13.20;99.90;;;;;;6005374;23;20042;-41
2021/10/27 01:09:51;;;;;;;37.58;31.38;;;13.20;99.90;;;;;;6005605;23;20036;-41
2021/10/27 01:12:20;;;;;;;38.28;32.90;;;13.20;99.90;;;;;;6005102;23;20020;-41
2021/10/27 01:14:46;;;;;;;40.15;33.67;;;13.20;99.90;;;;;;6004849;23;20059;-43
2021/10/27 01:17:15;;;;;;;38.78;33.58;;;13.20;99.90;;;;;;6004615;23;20033;-42
2021/10/27 01:19:52;;;;;;;34.92;30.70;;;13.20;99.90;;;;;;6005210;23;20027;-41
2021/10/27 01:22:21;;;;;;;37.42;32.75;;;13.20;99.90;;;;;;6005774;23;20032;-43
2021/10/27 01:24:47;;;;;;;43.20;33.38;;;13.20;99.90;;;;;;5978818;23;20055;-42
2021/10/27 01:27:14;;;;;;;36.70;32.72;;;13.20;99.90;;;;;;6004587;23;20031;-43
2021/10/27 01:29:40;;;;;;;42.58;34.05;;;13.20;99.90;;;;;;6004119;23;20102;-41
2021/10/27 01:32:07;;;;;;;39.33;32.67;;;13.30;99.90;;;;;;6004719;23;20028;-42
2021/10/27 01:34:35;;;;;;;41.17;33.20;;;13.30;99.90;;;;;;6004610;23;20027;-43
2021/10/27 01:37:03;;;;;;;39.15;32.80;;;13.30;99.90;;;;;;6005014;23;20446;-44
2021/10/27 01:39:29;;;;;;;40.75;31.50;;;13.30;99.90;;;;;;6004800;23;20354;-43
2021/10/27 01:41:56;;;;;;;37.10;31.50;;;13.30;99.90;;;;;;6004635;23;20028;-42
2021/10/27 01:44:22;;;;;;;39.75;31.55;;;13.40;99.90;;;;;;5979194;23;20023;-43
2021/10/27 01:46:48;;;;;;;40.10;32.42;;;13.40;99.90;;;;;;6005244;23;20027;-43
2021/10/27 01:49:14;;;;;;;38.67;32.33;;;13.30;99.90;;;;;;6005013;23;20455;-44
2021/10/27 01:51:41;;;;;;;36.30;31.27;;;13.40;99.90;;;;;;6005013;23;20031;-43
2021/10/27 01:54:07;;;;;;;36.40;30.42;;;13.40;99.90;;;;;;6004723;23;20028;-42
2021/10/27 01:56:34;;;;;;;38.60;31.70;;;13.40;99.90;;;;;;6004412;23;20023;-44
2021/10/27 01:59:00;;;;;;;38.40;32.15;;;13.40;99.90;;;;;;6005837;23;20031;-43
2021/10/27 02:01:26;;;;;;;42.05;33.08;;;13.40;99.90;;;;;;6004946;23;20028;-43
2021/10/27 02:03:53;;;;;;;42.78;34.45;;;13.50;99.90;;;;;;6004933;23;20028;-43
2021/10/27 02:06:19;;;;;;;46.03;34.83;;;13.40;99.90;;;;;;6004061;23;20454;-40
2021/10/27 02:08:45;;;;;;;39.78;32.95;;;13.50;99.90;;;;;;6005243;23;20114;-41
2021/10/27 02:11:11;;;;;;;44.05;33.72;;;13.50;99.90;;;;;;6005750;23;20027;-42
2021/10/27 02:13:37;;;;;;;47.15;34.60;;;13.50;99.90;;;;;;6005035;23;20533;-43
2021/10/27 02:16:04;;;;;;;39.95;32.88;;;13.60;99.90;;;;;;6004947;23;20027;-43
2021/10/27 02:18:29;;;;;;;38.00;33.83;;;13.60;99.90;;;;;;6005031;23;20069;-42
2021/10/27 02:20:57;;;;;;;39.80;30.92;;;13.60;99.90;;;;;;6005318;23;20770;-42
2021/10/27 02:23:23;;;;;;;43.97;31.50;;;13.60;99.90;;;;;;6006591;23;20131;-43
2021/10/27 02:25:49;;;;;;;39.78;31.85;;;13.60;99.90;;;;;;6005418;23;20123;-42
2021/10/27 02:28:15;;;;;;;36.10;29.85;;;13.70;99.90;;;;;;6004198;23;20331;-43
2021/10/27 02:30:41;;;;;;;37.92;29.08;;;13.70;99.90;;;;;;6005123;23;20032;-41
2021/10/27 02:33:08;;;;;;;35.40;26.33;;;13.70;99.90;;;;;;6005181;23;20032;-43
2021/10/27 02:35:34;;;;;;;37.25;25.88;;;13.70;99.90;;;;;;6005018;23;20071;-43
2021/10/27 02:38:00;;;;;;;31.48;24.30;;;13.80;99.90;;;;;;6004998;23;20031;-42
2021/10/27 02:40:30;;;;;;;28.33;23.23;;;13.80;99.90;;;;;;6005253;23;20118;-42
2021/10/27 02:42:56;;;;;;;29.13;22.98;;;13.80;99.90;;;;;;6005166;23;20024;-43
2021/10/27 02:45:23;;;;;;;27.58;21.63;;;13.80;99.90;;;;;;6004380;23;20034;-43
2021/10/27 02:47:51;;;;;;;31.33;20.90;;;13.90;99.90;;;;;;6005091;23;20210;-42
2021/10/27 02:50:17;;;;;;;32.35;20.67;;;13.90;99.90;;;;;;6004802;23;20024;-44
2021/10/27 02:52:45;;;;;;;26.50;19.17;;;13.90;99.90;;;;;;6004851;23;20525;-43
2021/10/27 02:55:12;;;;;;;31.15;19.45;;;13.90;99.90;;;;;;6003414;23;20035;-41
2021/10/27 02:57:38;;;;;;;27.73;18.33;;;13.90;99.90;;;;;;6003721;23;20035;-41
2021/10/27 03:00:07;;;;;;;29.33;19.80;;;14.00;99.90;;;;;;5979432;23;20104;-42
2021/10/27 03:02:37;;;;;;;23.70;19.27;;;13.90;99.90;;;;;;6003983;23;20032;-43
2021/10/27 03:05:05;;;;;;;29.45;19.25;;;14.00;99.90;;;;;;6002940;23;20032;-41
2021/10/27 03:07:31;;;;;;;27.25;20.17;;;14.00;99.90;;;;;;6003552;23;20580;-44
2021/10/27 03:09:57;;;;;;;27.20;18.00;;;13.90;99.90;;;;;;6003460;23;20028;-41
2021/10/27 03:12:23;;;;;;;22.40;15.68;;;14.00;99.90;;;;;;6004580;23;20102;-42
2021/10/27 03:14:49;;;;;;;22.80;16.55;;;14.00;99.90;;;;;;6004519;23;20040;-42
2021/10/27 03:17:17;;;;;;;31.50;17.98;;;14.00;99.90;;;;;;6003590;23;20027;-43
2021/10/27 03:19:44;;;;;;;21.17;16.35;;;14.00;99.90;;;;;;6003779;23;20027;-42
2021/10/27 03:22:10;;;;;;;27.23;16.85;;;14.00;99.90;;;;;;6004571;23;20134;-41
2021/10/27 03:24:36;;;;;;;22.60;14.27;;;14.00;99.90;;;;;;6005458;23;20043;-41
2021/10/27 03:27:03;;;;;;;24.35;14.52;;;14.00;99.90;;;;;;6002862;23;20063;-43
2021/10/27 03:29:29;;;;;;;28.73;15.13;;;14.00;99.90;;;;;;6004286;23;20027;-41
2021/10/27 03:32:00;;;;;;;24.45;13.20;;;14.00;99.90;;;;;;6004026;23;20083;-42
2021/10/27 03:34:27;;;;;;;19.70;12.63;;;14.10;99.90;;;;;;5979248;23;20039;-43
2021/10/27 03:36:53;;;;;;;26.45;13.27;;;14.10;99.90;;;;;;6004474;23;20085;-42
2021/10/27 03:39:20;;;;;;;26.45;12.57;;;14.10;99.90;;;;;;6003848;23;20537;-42
2021/10/27 03:41:48;;;;;;;25.70;13.48;;;14.10;99.90;;;;;;6003445;23;20083;-43
2021/10/27 03:44:16;;;;;;;21.20;13.00;;;14.10;99.90;;;;;;6004056;23;20035;-42
2021/10/27 03:46:42;;;;;;;17.83;11.80;;;14.10;99.90;;;;;;6002905;23;20087;-42
2021/10/27 03:49:08;;;;;;;20.05;12.15;;;14.10;99.90;;;;;;6004133;23;20040;-42
2021/10/27 03:51:34;;;;;;;22.77;10.88;;;14.10;99.90;;;;;;6003510;23;20106;-41
2021/10/27 03:54:01;;;;;;;22.25;11.35;;;14.10;99.90;;;;;;6003456;23;20032;-43
2021/10/27 03:56:29;;;;;;;21.88;11.70;;;14.10;99.90;;;;;;6001727;23;20039;-44
2021/10/27 03:58:56;;;;;;;24.63;11.80;;;14.10;99.90;;;;;;5979397;23;20035;-41
2021/10/27 04:01:22;;;;;;;25.02;11.85;;;14.20;99.90;;;;;;6003899;23;20033;-41
2021/10/27 04:03:49;;;;;;;17.30;10.65;;;14.10;99.90;;;;;;5954901;23;20042;-41
2021/10/27 04:06:18;;;;;;;26.90;13.30;;;14.20;99.90;;;;;;6003070;23;20444;-41
2021/10/27 04:08:45;;;;;;;20.17;12.23;;;14.20;99.90;;;;;;6004117;23;20031;-41
2021/10/27 04:11:11;;;;;;;19.98;13.93;;;14.20;99.90;;;;;;6004219;23;20120;-42
2021/10/27 04:13:40;;;;;;;26.05;13.10;;;14.20;99.90;;;;;;6004750;23;20358;-43
2021/10/27 04:16:06;;;;;;;24.35;13.57;;;14.20;99.90;;;;;;6003848;23;20096;-45
2021/10/27 04:18:32;;;;;;;18.67;12.65;;;14.20;99.90;;;;;;6003740;23;20027;-44
2021/10/27 04:20:59;;;;;;;19.92;11.63;;;14.20;99.90;;;;;;6004255;23;20039;-45
2021/10/27 04:23:27;;;;;;;21.35;12.13;;;14.20;99.90;;;;;;5979324;23;20028;-45
2021/10/27 04:25:54;;;;;;;21.33;13.15;;;14.20;99.90;;;;;;6005260;23;20171;-46
2021/10/27 04:28:20;;;;;;;24.20;11.93;;;14.20;99.90;;;;;;6002895;23;20042;-44
2021/10/27 04:30:47;;;;;;;23.40;11.13;;;14.20;99.90;;;;;;6004077;23;20501;-44
2021/10/27 04:33:22;;;;;;;18.70;11.05;;;14.20;99.90;;;;;;6004239;23;20026;-44
2021/10/27 04:35:52;;;;;;;20.00;10.70;;;14.10;99.90;;;;;;5979462;23;20031;-44
2021/10/27 04:38:20;;;;;;;21.52;10.70;;;14.10;99.90;;;;;;6004027;23;20480;-44
2021/10/27 04:40:46;;;;;;;19.77;12.02;;;14.10;99.90;;;;;;5978937;23;20095;-44
2021/10/27 04:43:13;;;;;;;20.27;11.38;;;14.10;99.90;;;;;;6003595;23;20023;-42
2021/10/27 04:45:39;;;;;;;19.75;10.98;;;14.10;99.90;;;;;;6003279;23;20242;-43
2021/10/27 04:48:07;;;;;;;17.55;12.25;;;14.00;99.90;;;;;;6003425;23;20024;-43
2021/10/27 04:50:34;;;;;;;22.58;11.57;;;14.00;99.90;;;;;;6004815;23;20083;-43
2021/10/27 04:53:02;;;;;;;21.02;11.10;;;14.00;99.90;;;;;;6004063;23;20032;-44
2021/10/27 04:55:28;;;;;;;17.02;11.73;;;14.00;99.90;;;;;;6004422;23;20024;-44
2021/10/27 04:57:54;;;;;;;21.02;11.35;;;14.00;99.90;;;;;;6002798;23;20119;-43
2021/10/27 05:00:20;;;;;;;21.17;12.68;;;14.00;99.90;;;;;;5977852;23;20031;-44
2021/10/27 05:02:46;;;;;;;21.75;14.07;;;14.00;99.90;;;;;;6004260;23;20115;-44
2021/10/27 05:05:17;;;;;;;19.88;13.88;;;13.90;99.90;;;;;;6003722;23;20036;-46
2021/10/27 05:07:44;;;;;;;23.90;16.40;;;14.00;99.90;;;;;;6003374;23;20024;-48
2021/10/27 05:10:10;;;;;;;28.42;17.40;;;13.90;99.90;;;;;;6003694;23;20092;-43
2021/10/27 05:12:39;;;;;;;28.77;18.13;;;13.80;99.90;;;;;;6003653;23;20336;-44
2021/10/27 05:15:06;;;;;;;26.35;18.92;;;13.80;99.90;;;;;;6004416;23;20080;-48
2021/10/27 05:17:32;;;;;;;34.25;20.85;;;13.70;99.90;;;;;;6003220;23;20028;-45
2021/10/27 05:19:58;;;;;;;35.35;22.52;;;13.70;99.90;;;;;;6003336;23;20080;-43
2021/10/27 05:22:24;;;;;;;31.25;22.75;;;13.70;99.90;;;;;;6001613;23;20138;-44
2021/10/27 05:24:53;;;;;;;30.65;22.02;;;13.60;99.90;;;;;;6002919;23;20469;-48
2021/10/27 05:27:19;;;;;;;29.05;22.55;;;13.60;99.90;;;;;;6003617;23;20074;-45
2021/10/27 05:29:45;;;;;;;32.22;24.52;;;13.60;99.90;;;;;;6003423;23;20393;-44
2021/10/27 05:32:17;;;;;;;30.20;21.98;;;13.60;99.90;;;;;;6004017;23;20024;-44
2021/10/27 05:34:43;;;;;;;35.53;23.58;;;13.60;99.90;;;;;;6004024;23;20032;-45
2021/10/27 05:37:10;;;;;;;28.00;22.65;;;13.60;99.90;;;;;;6003640;23;20032;-47
2021/10/27 05:39:36;;;;;;;33.85;21.52;;;13.60;99.90;;;;;;6004566;23;20034;-44
2021/10/27 05:42:09;;;;;;;30.95;23.90;;;13.70;99.90;;;;;;5979386;23;20028;-47
2021/10/27 05:44:36;;;;;;;31.25;22.98;;;13.60;99.90;;;;;;6005043;23;20028;-46
2021/10/27 05:47:05;;;;;;;23.65;20.77;;;13.60;99.90;;;;;;6005252;23;20055;-44
2021/10/27 05:49:42;;;;;;;30.00;21.75;;;13.60;99.90;;;;;;6005566;23;20027;-46
2021/10/27 05:57:26;;;;;;;28.90;18.58;;;13.60;99.90;;;;;;6005400;23;20088;-45
2021/10/27 05:59:53;;;;;;;29.67;18.98;;;13.70;99.90;;;;;;6005108;23;20098;-45
2021/10/27 06:02:23;;;;;;;23.90;17.23;;;13.70;99.90;;;;;;6005685;23;20495;-47
2021/10/27 06:04:51;;;;;;;29.08;16.52;;;13.70;99.90;;;;;;6004994;23;20198;-46
2021/10/27 06:07:18;;;;;;;26.50;17.50;;;13.70;99.90;;;;;;6003714;23;20541;-44
2021/10/27 06:09:44;;;;;;;23.13;16.65;;;13.80;99.90;;;;;;6005150;23;20857;-45
2021/10/27 06:12:14;;;;;;;22.38;14.73;;;13.80;99.90;;;;;;6004911;23;20039;-44
2021/10/27 06:14:41;;;;;;;20.13;15.20;;;13.90;99.90;;;;;;6004192;23;20031;-45
2021/10/27 06:17:07;;;;;;;23.23;15.10;;;13.80;99.90;;;;;;6004326;23;20038;-42
2021/10/27 06:19:35;;;;;;;24.25;14.52;;;13.90;99.90;;;;;;6003626;23;20019;-48
2021/10/27 06:22:05;;;;;;;31.38;14.93;;;13.90;99.90;;;;;;5979950;23;20028;-45
2021/10/27 06:24:32;;;;;;;17.85;13.98;;;13.90;99.90;;;;;;5955762;23;20027;-44
2021/10/27 06:26:59;;;;;;;22.02;14.63;;;13.90;99.90;;;;;;6004202;23;20024;-45
2021/10/27 06:35:26;;;;;;;20.45;12.20;;;13.90;99.90;;;;;;5945524;24;20028;-43
2021/10/27 06:48:48;;;;;;;19.77;15.82;;;13.90;99.90;;;;;;5944014;24;20029;-44
2021/10/27 06:51:14;;;;;;;20.55;16.58;;;13.90;99.90;;;;;;5944188;24;20055;-44
2021/10/27 06:53:43;;;;;;;21.40;17.05;;;13.80;99.90;;;;;;5944603;24;20059;-44
2021/10/27 06:56:13;;;;;;;22.38;18.00;;;13.90;99.90;;;;;;5943452;24;20032;-43
2021/10/27 06:58:46;;;;;;;20.48;17.98;;;13.80;99.90;;;;;;5944127;24;20567;-43
2021/10/27 07:06:59;;;;;;;26.05;20.80;;;13.70;99.90;;;;;;5915454;24;20036;-44
2021/10/27 07:15:01;;;;;;;27.80;22.30;;;13.70;99.90;;;;;;5944555;24;20528;-47
2021/10/27 07:17:32;;;;;;;25.17;22.50;;;13.70;99.90;;;;;;5920626;24;20025;-43
2021/10/27 07:20:04;;;;;;;27.58;22.98;;;13.60;99.90;;;;;;5944783;24;20025;-45
2021/10/27 07:22:32;;;;;;;29.70;24.27;;;13.60;99.90;;;;;;5944663;24;20036;-45
2021/10/27 07:24:59;;;;;;;26.40;23.00;;;13.60;99.90;;;;;;5944553;24;20039;-45
2021/10/27 07:27:26;;;;;;;34.47;25.40;;;13.60;99.90;;;;;;5944326;24;20415;-47
2021/10/27 07:29:52;;;;;;;25.65;22.55;;;13.60;99.90;;;;;;5944024;24;20093;-47
2021/10/27 07:32:21;;;;;;;26.77;24.00;;;13.60;99.90;;;;;;5945796;24;20056;-46
2021/10/27 07:34:56;;;;;;;29.33;23.27;;;13.60;99.90;;;;;;5967054;24;20028;-46
2021/10/27 07:43:05;;;;;;;30.55;26.35;;;13.60;99.90;;;;;;6004002;23;20027;-46
2021/10/27 07:45:34;;;;;;;28.30;25.40;;;13.60;99.90;;;;;;5979054;23;20122;-44
2021/10/27 07:48:00;;;;;;;32.30;26.02;;;13.60;99.90;;;;;;6004374;23;20043;-44
2021/10/27 07:50:28;;;;;;;30.45;26.90;;;13.60;99.90;;;;;;6002691;23;20035;-44
2021/10/27 07:52:57;;;;;;;29.52;26.13;;;13.60;99.90;;;;;;6004034;23;20774;-44
2021/10/27 07:55:24;;;;;;;29.52;25.70;;;13.60;99.90;;;;;;5978266;23;20023;-43
2021/10/27 07:57:50;;;;;;;29.88;25.48;;;13.60;99.90;;;;;;6004167;23;20038;-44
2021/10/27 08:00:21;;;;;;;29.00;25.67;;;13.60;99.90;;;;;;5978226;23;20043;-44
2021/10/27 08:02:48;;;;;;;27.30;24.17;;;13.60;99.90;;;;;;6005215;23;20080;-44
2021/10/27 08:05:18;;;;;;;27.10;23.98;;;13.70;99.90;;;;;;6004035;23;20663;-43
2021/10/27 08:07:47;;;;;;;25.25;22.55;;;13.70;99.90;;;;;;6004092;23;20055;-43
2021/10/27 08:10:14;;;;;;;27.02;23.58;;;13.70;99.90;;;;;;6002889;23;20032;-43
2021/10/27 08:12:42;;;;;;;25.95;23.25;;;13.70;99.90;;;;;;6004239;23;20119;-43
2021/10/27 08:15:09;;;;;;;23.83;21.52;;;13.70;99.90;;;;;;6004311;23;20127;-48
2021/10/27 08:17:40;;;;;;;27.10;21.65;;;13.80;99.90;;;;;;6003939;23;20465;-42
2021/10/27 08:20:08;;;;;;;23.92;21.30;;;13.80;99.90;;;;;;5979304;23;20027;-44
2021/10/27 08:22:39;;;;;;;22.45;20.08;;;13.90;99.90;;;;;;6003685;23;20536;-43
2021/10/27 08:25:08;;;;;;;23.17;18.55;;;14.00;99.90;;;;;;6003542;23;20023;-44
2021/10/27 08:27:37;;;;;;;21.25;17.80;;;14.00;99.90;;;;;;5979568;23;20065;-44
2021/10/27 08:30:10;;;;;;;21.17;17.40;;;14.10;99.90;;;;;;6003190;23;20067;-45
2021/10/27 08:32:49;;;;;;;22.35;17.42;;;14.10;99.90;;;;;;6003996;23;20437;-43
2021/10/27 08:35:16;;;;;;;21.80;15.63;;;14.10;99.90;;;;;;6003343;23;20031;-42
2021/10/27 08:37:45;;;;;;;18.70;15.48;;;14.00;99.90;;;;;;6003836;23;20038;-43
2021/10/27 08:40:14;;;;;;;20.23;15.63;;;14.10;99.90;;;;;;6002814;23;20115;-43
2021/10/27 08:42:41;;;;;;;20.05;14.13;;;14.00;99.90;;;;;;6004326;23;20035;-44
2021/10/27 08:45:09;;;;;;;18.08;14.07;;;14.00;99.90;;;;;;6003661;23;20436;-43
2021/10/27 08:47:39;;;;;;;19.90;12.80;;;14.00;99.90;;;;;;6003467;23;20773;-44
2021/10/27 08:50:07;;;;;;;15.80;12.68;;;14.00;99.90;;;;;;6002404;23;20031;-44
2021/10/27 08:52:34;;;;;;;17.23;11.98;;;14.00;99.90;;;;;;6003501;23;20051;-44
2021/10/27 08:55:02;;;;;;;13.27;11.80;;;14.00;99.90;;;;;;6004413;23;20031;-47
2021/10/27 08:57:31;;;;;;;16.48;11.60;;;14.00;99.90;;;;;;6003472;23;20068;-46
2021/10/27 09:05:31;;;;;;;15.80;10.70;;;14.00;99.90;;;;;;5976330;24;20121;-46
2021/10/27 09:08:38;;;;;;;16.40;11.27;;;14.10;99.90;;;;;;5975622;24;20047;-44
2021/10/27 09:45:07;;;;;;;13.05;8.63;;;14.20;99.90;;;;;;5976734;24;20039;-45
2021/10/27 09:56:28;;;;;;;;;;;14.40;99.90;;;;;;5976593;24;20810;-45
2021/10/27 10:04:04;;;;;;;10.55;6.70;;;14.60;99.90;;;;;;5975661;24;20763;-44
2021/10/27 10:04:43;;;;;;;14.77;7.10;;;14.60;99.90;;;;;;5976255;24;20032;-43
2021/10/27 10:07:11;;;;;;;13.18;7.15;;;14.60;99.90;;;;;;5974418;24;20097;-43
2021/10/27 10:09:40;;;;;;;14.55;7.72;;;14.70;99.90;;;;;;5976455;24;20028;-42
2021/10/27 10:12:07;;;;;;;11.10;6.25;;;14.70;99.90;;;;;;5951125;24;20028;-45
2021/10/27 10:14:35;;;;;;;14.65;6.78;;;14.70;99.90;;;;;;5976902;24;20032;-46
2021/10/27 10:17:04;;;;;;;13.85;6.47;;;14.80;99.90;;;;;;5975953;24;20028;-45
2021/10/27 10:19:41;;;;;;;13.65;6.82;;;14.80;99.90;;;;;;5976526;24;20032;-45
2021/10/27 10:22:32;;;;;;;15.90;6.53;;;14.80;99.90;;;;;;5976126;24;20446;-44
2021/10/27 10:25:14;;;;;;;9.95;6.50;;;14.80;99.90;;;;;;5976313;24;20083;-46
2021/10/27 10:27:48;;;;;;;12.00;6.40;;;14.80;99.90;;;;;;5976214;24;20028;-44
2021/10/27 10:30:45;;;;;;;11.80;6.10;;;14.80;99.90;;;;;;5976291;24;20601;-44
2021/10/27 10:33:13;;;;;;;12.15;6.22;;;14.80;99.90;;;;;;5975525;24;20095;-44
2021/10/27 10:35:49;;;;;;;11.07;6.65;;;14.80;99.90;;;;;;5976895;24;20032;-44
2021/10/27 10:39:00;;;;;;;15.10;6.70;;;14.80;99.90;;;;;;5976478;24;20051;-43
2021/10/27 11:37:55;;;;;;;10.10;4.80;;;15.40;99.90;;;;;;6004162;23;20041;-44
2021/10/27 11:40:59;;;;;;;9.00;4.32;;;15.40;99.90;;;;;;5979280;23;20024;-43
2021/10/27 11:43:33;;;;;;;10.50;4.30;;;15.40;99.90;;;;;;6003105;23;20069;-43
2021/10/27 11:46:26;;;;;;;11.45;5.07;;;15.40;99.90;;;;;;6005144;23;20028;-43
2021/10/27 11:48:59;;;;;;;11.48;4.85;;;15.50;99.90;;;;;;6003842;23;20102;-43
2021/10/27 11:51:28;;;;;;;11.77;4.30;;;15.40;99.90;;;;;;6004624;23;20567;-44
2021/10/27 11:53:55;;;;;;;8.65;4.35;;;15.50;99.90;;;;;;6004100;23;20073;-43
2021/10/27 11:56:22;;;;;;;8.15;4.30;;;15.50;99.90;;;;;;6004161;23;20031;-43
2021/10/27 11:58:52;;;;;;;9.13;4.28;;;15.50;99.90;;;;;;5979848;23;20084;-44
2021/10/27 12:01:41;;;;;;;10.55;5.22;;;15.50;99.90;;;;;;6003623;23;20051;-44
2021/10/27 12:04:11;;;;;;;7.85;4.28;;;15.50;99.90;;;;;;6003593;23;20111;-43
2021/10/27 12:06:52;;;;;;;11.23;4.53;;;15.40;99.90;;;;;;5978915;23;20035;-43
2021/10/27 12:17:50;;;;;;;7.10;3.20;;;15.50;99.90;;;;;;5978717;23;20086;-42
2021/10/27 12:20:30;;;;;;;9.48;3.60;;;15.60;99.90;;;;;;6004964;23;20107;-42
2021/10/27 12:22:56;;;;;;;8.35;3.67;;;15.60;99.90;;;;;;6004611;23;20034;-44
2021/10/27 12:25:22;;;;;;;7.03;3.40;;;15.60;99.90;;;;;;5979046;23;20342;-44
2021/10/27 12:27:48;;;;;;;9.55;3.60;;;15.60;99.90;;;;;;6003361;23;20529;-43
2021/10/27 12:30:19;;;;;;;8.13;3.47;;;15.50;99.90;;;;;;6003249;23;20028;-43
2021/10/27 12:32:56;;;;;;;10.70;4.18;;;15.50;99.90;;;;;;6002925;23;20451;-43
2021/10/27 12:35:28;;;;;;;5.85;3.58;;;15.50;99.90;;;;;;6003833;23;20067;-42
2021/10/27 12:38:19;;;;;;;10.55;4.07;;;15.50;99.90;;;;;;6003894;23;20027;-42
2021/10/27 12:40:47;;;;;;;8.68;3.65;;;15.40;99.90;;;;;;6002480;23;20050;-45
2021/10/27 12:43:15;;;;;;;8.82;4.03;;;15.40;99.90;;;;;;6002585;23;20028;-42
2021/10/27 12:45:42;;;;;;;6.53;3.65;;;15.40;99.90;;;;;;6003579;23;20556;-42
2021/10/27 12:48:11;;;;;;;9.23;3.85;;;15.50;99.90;;;;;;6003494;23;20358;-43
2021/10/27 12:51:00;;;;;;;11.55;4.95;;;15.50;99.90;;;;;;6004538;23;20028;-42
2021/10/27 12:53:36;;;;;;;9.52;5.18;;;15.50;99.90;;;;;;6005454;23;20073;-42
2021/10/27 12:56:21;;;;;;;10.30;4.65;;;15.50;99.90;;;;;;6005750;23;20032;-43
2021/10/27 12:58:58;;;;;;;7.00;4.50;;;15.50;99.90;;;;;;6006213;23;20030;-43
2021/10/27 13:01:38;;;;;;;7.13;4.43;;;15.50;99.90;;;;;;6005712;23;20036;-43
2021/10/27 13:12:20;;;;;;;8.90;4.28;;;15.50;99.90;;;;;;6005960;23;20038;-43
2021/10/27 13:14:53;;;;;;;9.93;4.50;;;15.60;99.90;;;;;;6004257;23;20059;-44
2021/10/27 13:20:33;;;;;;;8.52;4.68;;;15.60;99.90;;;;;;6005731;23;20023;-44
2021/10/27 13:31:09;;;;;;;7.28;3.88;;;15.50;99.90;;;;;;6004914;23;20143;-42
2021/10/27 13:33:36;;;;;;;;;;;15.50;99.90;;;;;;6005927;23;20106;-43
2021/10/27 13:36:03;;;;;;;7.90;3.65;;;15.50;99.90;;;;;;6004975;23;20352;-43
2021/10/27 13:38:35;;;;;;;6.43;3.28;;;15.50;99.90;;;;;;6004828;23;20149;-43
2021/10/27 13:41:08;;;;;;;9.02;3.67;;;15.40;99.90;;;;;;6005237;23;20028;-44
2021/10/27 13:46:50;;;;;;;9.57;3.60;;;15.40;99.90;;;;;;5890156;24;20464;-43
2021/10/27 14:51:04;;;;;;;6.25;2.53;;;15.10;99.90;;;;;;5945345;24;20459;-43
2021/10/27 14:59:18;;;;;;;8.80;2.08;;;15.10;99.90;;;;;;5945157;24;20084;-42
2021/10/27 15:20:50;;;;;;;5.93;2.45;;;14.90;99.90;;;;;;6004761;23;20024;-43
2021/10/27 15:24:04;;;;;;;5.32;2.63;;;14.90;99.90;;;;;;5983740;23;20040;-42
2021/10/27 15:40:17;;;;;;;6.32;3.10;;;14.80;99.90;;;;;;5979191;23;20114;-42
2021/10/27 15:50:47;;;;;;;8.45;3.47;;;14.70;99.90;;;;;;6004726;23;20350;-42
2021/10/27 15:53:03;;;;;;;;;;;14.70;99.90;;;;;;6002476;23;20042;-43
2021/10/27 15:55:29;;;;;;;6.00;3.33;;;14.70;99.90;;;;;;6004067;23;19973;-43
2021/10/27 15:57:55;;;;;;;7.80;3.28;;;14.60;99.90;;;;;;6003735;23;20517;-44
2021/10/27 16:00:23;;;;;;;7.38;3.20;;;14.70;99.90;;;;;;6004145;23;20715;-44
2021/10/27 16:02:49;;;;;;;8.65;3.78;;;14.60;99.90;;;;;;6004357;23;20039;-43
2021/10/27 16:05:15;;;;;;;8.15;3.53;;;14.60;99.90;;;;;;6004157;23;20047;-43
2021/10/27 16:07:46;;;;;;;6.47;3.42;;;14.60;99.90;;;;;;6003770;23;20030;-42
2021/10/27 16:10:18;;;;;;;6.68;3.33;;;14.60;99.90;;;;;;6003690;23;20107;-42
2021/10/27 16:12:44;;;;;;;6.88;3.55;;;14.60;99.90;;;;;;6004317;23;20342;-43
2021/10/27 16:15:16;;;;;;;5.82;3.55;;;14.50;99.90;;;;;;6004313;23;20402;-44
2021/10/27 16:17:42;;;;;;;7.50;4.03;;;14.50;99.90;;;;;;6003201;23;20472;-43
2021/10/27 16:20:10;;;;;;;8.00;3.80;;;14.50;99.90;;;;;;6003772;23;20024;-43
2021/10/27 16:22:36;;;;;;;8.18;3.83;;;14.40;99.90;;;;;;6003906;23;20035;-44
2021/10/27 16:25:03;;;;;;;7.68;4.90;;;14.40;99.90;;;;;;6004852;23;20038;-43
2021/10/27 16:27:30;;;;;;;7.78;4.55;;;14.30;99.90;;;;;;6002815;23;20123;-46
2021/10/27 16:29:56;;;;;;;7.55;4.43;;;14.30;99.90;;;;;;6004221;23;20167;-44
2021/10/27 16:32:22;;;;;;;10.45;5.78;;;14.30;99.90;;;;;;6004442;23;20059;-44
2021/10/27 16:34:48;;;;;;;9.70;5.97;;;14.20;99.90;;;;;;6004785;23;20873;-44
2021/10/27 16:37:14;;;;;;;9.18;5.88;;;14.30;99.90;;;;;;6004476;23;20039;-44
2021/10/27 16:39:40;;;;;;;10.02;5.85;;;14.20;99.90;;;;;;6003759;23;20031;-44
2021/10/27 16:42:06;;;;;;;10.30;6.68;;;14.20;99.90;;;;;;6003391;23;20032;-43
2021/10/27 16:44:32;;;;;;;10.70;5.65;;;14.20;99.90;;;;;;6003954;23;20074;-43
2021/10/27 16:46:58;;;;;;;6.85;5.70;;;14.20;99.90;;;;;;6003543;23;20409;-45
2021/10/27 16:49:24;;;;;;;11.10;7.20;;;14.10;99.90;;;;;;5978989;23;20470;-43
2021/10/27 16:51:50;;;;;;;13.18;9.02;;;14.10;99.90;;;;;;5978017;23;20023;-43
2021/10/27 16:54:19;;;;;;;13.60;10.70;;;14.10;99.90;;;;;;6004248;23;20031;-45
2021/10/27 16:56:47;;;;;;;14.23;11.73;;;14.10;99.90;;;;;;6003415;23;20055;-42
2021/10/27 16:59:13;;;;;;;14.70;12.73;;;14.10;99.90;;;;;;6003844;23;20036;-44
2021/10/27 17:01:39;;;;;;;14.38;12.88;;;14.10;99.90;;;;;;6003604;23;20035;-43
2021/10/27 17:04:05;;;;;;;15.00;13.45;;;14.10;99.90;;;;;;6003623;23;20051;-41
2021/10/27 17:06:33;;;;;;;21.00;13.20;;;14.00;99.90;;;;;;6003362;23;20115;-43
2021/10/27 17:08:59;;;;;;;15.43;14.00;;;14.00;99.90;;;;;;6004599;23;20128;-41
2021/10/27 17:11:25;;;;;;;16.25;14.40;;;14.00;99.90;;;;;;6003544;23;20459;-41
2021/10/27 17:13:51;;;;;;;18.45;13.93;;;13.90;99.90;;;;;;6004794;23;20323;-43
2021/10/27 17:16:19;;;;;;;17.40;15.18;;;13.90;99.90;;;;;;6004366;23;20031;-43
2021/10/27 17:18:45;;;;;;;15.48;13.85;;;13.80;99.90;;;;;;6003428;23;20074;-43
2021/10/27 17:21:14;;;;;;;17.10;14.88;;;13.80;99.90;;;;;;6003600;23;20028;-44
2021/10/27 17:23:40;;;;;;;14.90;13.25;;;13.80;99.90;;;;;;6004197;23;20024;-44
2021/10/27 17:26:08;;;;;;;15.93;13.75;;;13.70;99.90;;;;;;6005209;23;20588;-46
2021/10/27 17:28:34;;;;;;;17.00;15.15;;;13.70;99.90;;;;;;6004173;23;20027;-43